createdAt,value
2023-05-08T00:00:23.104Z,68.11
2023-05-08T00:02:24.725Z,67.75
2023-05-08T00:04:26.670Z,67.79
2023-05-08T00:06:28.216Z,67.32
2023-05-08T00:08:29.733Z,67.14
2023-05-08T00:10:31.233Z,67.30
2023-05-08T00:12:32.849Z,67.55
2023-05-08T00:14:34.734Z,68.25
2023-05-08T00:16:37.208Z,67.60
2023-05-08T00:18:39.142Z,68.37
2023-05-08T00:20:41.631Z,68.50
2023-05-08T00:22:43.162Z,69.23
2023-05-08T00:24:45.636Z,69.06
2023-05-08T00:26:47.394Z,69.80
2023-05-08T00:28:48.929Z,69.99
2023-05-08T00:30:50.702Z,70.45
2023-05-08T00:32:52.666Z,70.96
2023-05-08T00:34:54.480Z,71.03
2023-05-08T00:36:56.359Z,71.75
2023-05-08T00:38:57.911Z,71.31
2023-05-08T00:41:00.609Z,71.52
2023-05-08T00:43:02.453Z,70.90
2023-05-08T00:45:04.787Z,70.26
2023-05-08T00:47:06.956Z,71.12
2023-05-08T00:49:11.138Z,71.61
2023-05-08T00:51:13.802Z,71.86
2023-05-08T00:53:15.391Z,71.80
2023-05-08T00:55:17.500Z,72.11
2023-05-08T00:57:19.579Z,72.04
2023-05-08T00:59:22.648Z,70.72
2023-05-08T01:01:24.750Z,71.36
2023-05-08T01:03:26.769Z,71.05
2023-05-08T01:05:28.692Z,71.07
2023-05-08T01:07:30.516Z,71.69
2023-05-08T01:09:32.111Z,71.93
2023-05-08T01:11:36.670Z,71.19
2023-05-08T01:13:52.143Z,72.02
2023-05-08T01:16:11.885Z,72.82
2023-05-08T01:18:21.691Z,72.46
2023-05-08T01:20:30.189Z,72.65
2023-05-08T01:22:48.238Z,73.04
2023-05-08T01:24:59.493Z,72.75
2023-05-08T01:27:22.586Z,73.30
2023-05-08T01:30:07.997Z,73.62
2023-05-08T01:32:22.226Z,73.50
2023-05-08T01:34:26.458Z,73.53
2023-05-08T01:36:41.460Z,73.53
2023-05-08T01:38:53.826Z,73.20
2023-05-08T01:41:10.496Z,73.20
2023-05-08T01:43:45.850Z,73.92
2023-05-08T01:45:51.251Z,73.33
2023-05-08T01:48:04.210Z,73.94
2023-05-08T01:50:18.326Z,73.36
2023-05-08T01:52:40.375Z,72.37
2023-05-08T01:54:55.636Z,72.25
2023-05-08T01:57:00.006Z,72.58
2023-05-08T01:59:04.285Z,73.01
2023-05-08T02:01:06.248Z,73.84
2023-05-08T02:03:09.197Z,73.92
2023-05-08T02:05:12.620Z,73.84
2023-05-08T02:07:14.780Z,74.34
2023-05-08T02:09:16.799Z,73.29
2023-05-08T02:11:20.172Z,73.59
2023-05-08T02:13:23.345Z,73.87
2023-05-08T02:15:27.231Z,74.13
2023-05-08T02:17:30.654Z,73.43
2023-05-08T02:19:34.477Z,73.73
2023-05-08T02:21:37.212Z,74.02
2023-05-08T02:23:39.031Z,74.13
2023-05-08T02:25:42.347Z,74.76
2023-05-08T02:27:47.454Z,74.65
2023-05-08T02:29:51.467Z,75.00
2023-05-08T02:31:56.092Z,75.11
2023-05-08T02:33:59.802Z,74.85
2023-05-08T02:36:02.727Z,73.89
2023-05-08T02:38:10.533Z,73.88
2023-05-08T02:40:14.372Z,75.02
2023-05-08T02:42:16.349Z,74.92
2023-05-08T02:44:18.586Z,75.15
2023-05-08T02:46:37.755Z,75.46
2023-05-08T02:49:10.583Z,75.70
2023-05-08T02:51:37.975Z,76.17
2023-05-08T02:53:47.827Z,76.47
2023-05-08T02:55:53.794Z,76.26
2023-05-08T02:58:20.347Z,75.90
2023-05-08T03:00:27.568Z,76.54
2023-05-08T03:02:48.061Z,76.07
2023-05-08T03:04:59.348Z,75.67
2023-05-08T03:07:02.853Z,76.20
2023-05-08T03:09:06.739Z,76.36
2023-05-08T03:11:17.847Z,75.87
2023-05-08T03:13:21.413Z,76.24
2023-05-08T03:15:29.268Z,76.23
2023-05-08T03:17:33.086Z,76.02
2023-05-08T03:19:38.134Z,76.25
2023-05-08T03:21:44.115Z,76.83
2023-05-08T03:23:49.575Z,76.46
2023-05-08T03:25:52.586Z,77.26
2023-05-08T03:27:56.228Z,78.36
2023-05-08T03:30:01.749Z,77.39
2023-05-08T03:32:06.825Z,77.88
2023-05-08T03:34:10.143Z,77.01
2023-05-08T03:36:13.447Z,78.20
2023-05-08T03:38:16.300Z,77.79
2023-05-08T03:40:17.961Z,78.56
2023-05-08T03:42:22.393Z,78.65
2023-05-08T03:44:25.980Z,79.15
2023-05-08T03:46:27.822Z,78.41
2023-05-08T03:48:33.271Z,78.67
2023-05-08T03:50:37.891Z,78.99
2023-05-08T03:52:43.171Z,78.68
2023-05-08T03:54:44.718Z,78.85
2023-05-08T03:56:47.803Z,79.30
2023-05-08T03:59:18.307Z,79.25
2023-05-08T04:01:41.615Z,79.51
2023-05-08T04:04:05.034Z,78.78
2023-05-08T04:06:22.837Z,78.27
2023-05-08T04:08:34.592Z,78.71
2023-05-08T04:10:44.133Z,78.47
2023-05-08T04:12:59.924Z,77.96
2023-05-08T04:15:09.944Z,78.54
2023-05-08T04:17:15.880Z,79.16
2023-05-08T04:19:27.373Z,79.01
2023-05-08T04:21:33.916Z,78.14
2023-05-08T04:23:37.381Z,79.20
2023-05-08T04:25:42.555Z,79.21
2023-05-08T04:27:45.129Z,79.19
2023-05-08T04:29:47.988Z,80.12
2023-05-08T04:31:50.919Z,79.33
2023-05-08T04:33:52.702Z,79.68
2023-05-08T04:35:54.672Z,79.89
2023-05-08T04:37:58.839Z,80.24
2023-05-08T04:40:01.255Z,79.49
2023-05-08T04:42:04.664Z,79.53
2023-05-08T04:44:08.392Z,79.67
2023-05-08T04:46:10.373Z,79.56
2023-05-08T04:48:12.174Z,79.06
2023-05-08T04:50:13.800Z,79.47
2023-05-08T04:52:16.311Z,79.31
2023-05-08T04:54:18.184Z,78.39
2023-05-08T04:56:19.692Z,78.82
2023-05-08T04:58:21.346Z,79.37
2023-05-08T05:00:23.704Z,79.51
2023-05-08T05:02:26.590Z,78.71
2023-05-08T05:04:36.132Z,78.60
2023-05-08T05:06:39.526Z,79.04
2023-05-08T05:08:41.190Z,77.71
2023-05-08T05:10:43.020Z,77.88
2023-05-08T05:12:44.715Z,77.31
2023-05-08T05:14:47.391Z,76.89
2023-05-08T05:16:48.947Z,77.48
2023-05-08T05:18:50.713Z,77.20
2023-05-08T05:20:52.541Z,76.69
2023-05-08T05:22:54.983Z,77.44
2023-05-08T05:24:56.536Z,77.34
2023-05-08T05:26:58.455Z,77.45
2023-05-08T05:29:00.593Z,76.83
2023-05-08T05:31:02.585Z,77.29
2023-05-08T05:33:04.455Z,77.12
2023-05-08T05:35:06.911Z,77.20
2023-05-08T05:37:09.184Z,76.99
2023-05-08T05:39:11.101Z,76.83
2023-05-08T05:41:13.469Z,76.95
2023-05-08T05:43:15.673Z,76.84
2023-05-08T05:45:17.796Z,76.77
2023-05-08T05:47:19.645Z,76.78
2023-05-08T05:49:21.520Z,75.73
2023-05-08T05:51:23.085Z,76.03
2023-05-08T05:53:24.767Z,75.41
2023-05-08T05:55:27.385Z,75.61
2023-05-08T05:57:29.513Z,76.17
2023-05-08T05:59:31.450Z,76.41
2023-05-08T06:01:32.967Z,75.92
2023-05-08T06:03:34.674Z,76.68
2023-05-08T06:05:36.851Z,76.07
2023-05-08T06:07:38.461Z,76.51
2023-05-08T06:09:40.420Z,76.70
2023-05-08T06:11:44.716Z,76.26
2023-05-08T06:13:48.642Z,76.06
2023-05-08T06:15:53.805Z,75.78
2023-05-08T06:17:55.401Z,74.59
2023-05-08T06:19:58.198Z,75.93
2023-05-08T06:22:00.005Z,75.36
2023-05-08T06:24:01.631Z,76.60
2023-05-08T06:26:03.393Z,74.84
2023-05-08T06:28:06.771Z,75.60
2023-05-08T06:30:10.581Z,75.92
2023-05-08T06:32:12.176Z,74.96
2023-05-08T06:34:13.910Z,74.62
2023-05-08T06:36:15.579Z,73.47
2023-05-08T06:38:19.121Z,74.43
2023-05-08T06:40:20.714Z,74.15
2023-05-08T06:42:22.471Z,74.30
2023-05-08T06:44:25.803Z,76.36
2023-05-08T06:46:27.516Z,74.01
2023-05-08T06:48:29.309Z,74.18
2023-05-08T06:50:31.427Z,71.84
2023-05-08T06:52:32.990Z,73.82
2023-05-08T06:54:34.804Z,73.72
2023-05-08T06:56:36.935Z,71.98
2023-05-08T06:58:38.454Z,74.08
2023-05-08T07:00:39.954Z,74.21
2023-05-08T07:02:41.917Z,74.73
2023-05-08T07:04:46.248Z,74.30
2023-05-08T07:06:48.281Z,73.61
2023-05-08T07:08:49.945Z,71.90
2023-05-08T07:10:52.398Z,71.36
2023-05-08T07:12:54.620Z,73.53
2023-05-08T07:14:57.885Z,74.00
2023-05-08T07:17:06.582Z,71.26
2023-05-08T07:19:08.398Z,73.50
2023-05-08T07:21:10.558Z,72.94
2023-05-08T07:23:12.119Z,72.43
2023-05-08T07:25:13.931Z,72.21
2023-05-08T07:27:16.642Z,71.84
2023-05-08T07:29:18.205Z,72.55
2023-05-08T07:31:20.460Z,71.81
2023-05-08T07:33:22.669Z,71.41
2023-05-08T07:35:24.669Z,72.52
2023-05-08T07:37:26.225Z,72.60
2023-05-08T07:39:27.756Z,71.84
2023-05-08T07:41:29.545Z,72.57
2023-05-08T07:43:31.926Z,72.32
2023-05-08T07:45:34.745Z,72.68
2023-05-08T07:47:36.496Z,72.86
2023-05-08T07:49:38.137Z,72.73
2023-05-08T07:51:40.187Z,72.98
2023-05-08T07:53:41.818Z,73.40
2023-05-08T07:55:43.525Z,73.36
2023-05-08T07:57:45.104Z,73.86
2023-05-08T07:59:47.686Z,74.62
2023-05-08T08:01:51.920Z,72.34
2023-05-08T08:03:54.305Z,73.25
2023-05-08T08:05:55.949Z,73.80
2023-05-08T08:07:57.841Z,74.45
2023-05-08T08:09:59.993Z,74.17
2023-05-08T08:12:01.672Z,75.35
2023-05-08T08:14:03.798Z,74.48
2023-05-08T08:16:06.248Z,74.29
2023-05-08T08:18:08.018Z,74.46
2023-05-08T08:20:09.777Z,75.58
2023-05-08T08:22:11.755Z,75.67
2023-05-08T08:24:13.523Z,75.04
2023-05-08T08:26:15.342Z,74.90
2023-05-08T08:28:17.939Z,75.57
2023-05-08T08:30:20.095Z,74.39
2023-05-08T08:32:21.799Z,75.29
2023-05-08T08:34:23.536Z,74.72
2023-05-08T08:36:25.537Z,75.93
2023-05-08T08:38:28.471Z,75.26
2023-05-08T08:40:30.481Z,75.71
2023-05-08T08:42:32.098Z,74.83
2023-05-08T08:44:33.807Z,75.74
2023-05-08T08:46:44.122Z,76.23
2023-05-08T08:48:47.264Z,74.46
2023-05-08T08:50:53.132Z,74.54
2023-05-08T08:53:06.082Z,74.03
2023-05-08T08:55:12.207Z,73.83
2023-05-08T08:57:15.304Z,71.85
2023-05-08T08:59:18.507Z,72.92
2023-05-08T09:01:21.887Z,71.46
2023-05-08T09:03:23.815Z,70.95
2023-05-08T09:05:26.682Z,68.66
2023-05-08T09:07:30.289Z,68.92
2023-05-08T09:09:35.968Z,71.50
2023-05-08T09:11:39.894Z,70.87
2023-05-08T09:13:41.574Z,70.12
2023-05-08T09:15:43.474Z,70.88
2023-05-08T09:17:45.031Z,69.87
2023-05-08T09:19:49.373Z,71.74
2023-05-08T09:21:51.533Z,70.05
2023-05-08T09:23:56.574Z,70.65
2023-05-08T09:25:58.351Z,69.98
2023-05-08T09:28:15.686Z,70.54
2023-05-08T09:30:17.295Z,68.49
2023-05-08T09:32:18.981Z,68.81
2023-05-08T09:34:28.953Z,70.38
2023-05-08T09:36:32.156Z,69.86
2023-05-08T09:38:39.038Z,67.88
2023-05-08T09:40:40.814Z,70.07
2023-05-08T09:42:42.644Z,68.79
2023-05-08T09:44:51.810Z,67.88
2023-05-08T09:47:16.924Z,68.12
2023-05-08T09:49:18.611Z,70.48
2023-05-08T09:51:21.618Z,68.61
2023-05-08T09:53:31.145Z,68.55
2023-05-08T09:55:47.562Z,68.74
2023-05-08T09:57:59.741Z,68.20
2023-05-08T10:00:12.754Z,67.12
2023-05-08T10:02:16.301Z,68.68
2023-05-08T10:04:18.130Z,67.92
2023-05-08T10:06:19.876Z,67.48
2023-05-08T10:08:23.799Z,66.82
2023-05-08T10:10:27.284Z,68.38
2023-05-08T10:12:30.056Z,68.48
2023-05-08T10:14:31.846Z,67.46
2023-05-08T10:16:42.541Z,66.47
2023-05-08T10:18:50.166Z,67.08
2023-05-08T10:20:55.185Z,65.99
2023-05-08T10:22:58.538Z,65.92
2023-05-08T10:25:02.136Z,63.79
2023-05-08T10:27:17.476Z,64.40
2023-05-08T10:29:25.660Z,63.09
2023-05-08T10:31:33.938Z,62.65
2023-05-08T10:33:40.441Z,60.88
2023-05-08T10:35:42.318Z,61.25
2023-05-08T10:37:45.915Z,59.90
2023-05-08T10:39:49.227Z,60.15
2023-05-08T10:41:51.205Z,58.75
2023-05-08T10:43:53.970Z,60.05
2023-05-08T10:45:57.636Z,59.47
2023-05-08T10:48:16.278Z,60.52
2023-05-08T10:50:49.752Z,60.20
2023-05-08T10:52:57.514Z,59.36
2023-05-08T10:55:02.340Z,56.96
2023-05-08T10:57:11.372Z,57.50
2023-05-08T10:59:19.585Z,56.30
2023-05-08T11:01:21.250Z,56.86
2023-05-08T11:03:32.581Z,57.41
2023-05-08T11:05:47.039Z,59.70
2023-05-08T11:07:59.380Z,56.32
2023-05-08T11:10:13.699Z,58.33
2023-05-08T11:12:27.755Z,57.84
2023-05-08T11:14:31.308Z,58.29
2023-05-08T11:16:54.914Z,58.43
2023-05-08T11:19:16.598Z,57.68
2023-05-08T11:21:24.065Z,57.13
2023-05-08T11:23:36.120Z,58.50
2023-05-08T11:25:44.503Z,58.37
2023-05-08T11:27:48.786Z,56.79
2023-05-08T11:30:28.722Z,55.04
2023-05-08T11:32:57.164Z,54.69
2023-05-08T11:34:58.848Z,53.35
2023-05-08T11:37:02.499Z,53.29
2023-05-08T11:39:12.802Z,54.11
2023-05-08T11:41:22.903Z,53.07
2023-05-08T11:43:34.126Z,53.31
2023-05-08T11:45:41.039Z,53.80
2023-05-08T11:47:45.128Z,52.84
2023-05-08T11:49:46.883Z,52.81
2023-05-08T11:51:57.877Z,51.04
2023-05-08T11:54:01.138Z,52.68
2023-05-08T11:56:03.352Z,54.46
2023-05-08T11:58:15.737Z,52.25
2023-05-08T12:00:18.077Z,51.19
2023-05-08T12:02:19.934Z,51.80
2023-05-08T12:04:21.970Z,54.78
2023-05-08T12:06:24.472Z,50.34
2023-05-08T12:08:26.887Z,49.23
2023-05-08T12:10:28.372Z,47.72
2023-05-08T12:12:40.588Z,49.76
2023-05-08T12:14:42.194Z,47.70
2023-05-08T12:16:44.343Z,49.29
2023-05-08T12:18:46.043Z,46.45
2023-05-08T12:20:56.854Z,47.33
2023-05-08T12:22:58.376Z,44.95
2023-05-08T12:25:00.028Z,44.08
2023-05-08T12:27:01.912Z,41.51
2023-05-08T12:29:06.648Z,42.30
2023-05-08T12:31:08.288Z,41.93
2023-05-08T12:33:13.344Z,42.30
2023-05-08T12:38:03.733Z,40.81
2023-05-08T12:40:06.653Z,40.04
2023-05-08T12:42:08.174Z,40.33
2023-05-08T12:44:26.130Z,41.04
2023-05-08T12:46:29.449Z,39.85
2023-05-08T12:48:31.885Z,40.81
2023-05-08T12:50:38.708Z,40.56
2023-05-08T12:52:40.270Z,41.18
2023-05-08T12:54:48.660Z,40.86
2023-05-08T12:56:50.686Z,40.48
2023-05-08T12:58:52.278Z,41.62
2023-05-08T13:01:03.349Z,41.82
2023-05-08T13:03:07.564Z,41.52
2023-05-08T13:05:09.477Z,42.22
2023-05-08T13:07:11.662Z,42.53
2023-05-08T13:09:18.623Z,42.62
2023-05-08T13:11:32.163Z,42.68
2023-05-08T13:13:35.520Z,44.27
2023-05-08T13:15:37.688Z,44.42
2023-05-08T13:17:39.411Z,45.26
2023-05-08T13:19:40.986Z,44.83
2023-05-08T13:21:46.088Z,44.57
2023-05-08T13:23:47.810Z,42.65
2023-05-08T13:25:49.635Z,43.11
2023-05-08T13:27:51.226Z,42.28
2023-05-08T13:29:52.788Z,41.56
2023-05-08T13:31:54.467Z,41.74
2023-05-08T13:33:56.510Z,42.11
2023-05-08T13:35:58.132Z,42.74
2023-05-08T13:38:00.412Z,42.82
2023-05-08T13:40:01.959Z,42.48
2023-05-08T13:42:04.344Z,43.15
2023-05-08T13:44:05.848Z,43.69
2023-05-08T13:46:07.478Z,43.74
2023-05-08T13:48:09.147Z,45.28
2023-05-08T13:50:12.532Z,44.54
2023-05-08T13:52:14.246Z,45.70
2023-05-08T13:54:15.856Z,44.64
2023-05-08T13:56:17.375Z,43.47
2023-05-08T13:58:19.061Z,43.76
2023-05-08T14:00:20.627Z,44.39
2023-05-08T14:02:22.584Z,42.90
2023-05-08T14:04:24.466Z,43.39
2023-05-08T14:06:26.754Z,42.68
2023-05-08T14:08:28.398Z,41.98
2023-05-08T14:10:29.957Z,43.36
2023-05-08T14:12:35.854Z,41.36
2023-05-08T14:14:37.910Z,39.94
2023-05-08T14:16:39.581Z,37.97
2023-05-08T14:18:41.279Z,37.80
2023-05-08T14:20:45.301Z,38.85
2023-05-08T14:22:48.605Z,37.04
2023-05-08T14:24:50.383Z,34.86
2023-05-08T14:26:51.995Z,35.13
2023-05-08T14:28:53.627Z,34.79
2023-05-08T14:30:55.968Z,34.52
2023-05-08T14:32:58.253Z,34.68
2023-05-08T14:34:59.877Z,35.21
2023-05-08T14:37:01.476Z,34.17
2023-05-08T14:39:03.681Z,34.85
2023-05-08T14:41:05.309Z,33.28
2023-05-08T14:43:06.937Z,32.65
2023-05-08T14:45:09.384Z,32.77
2023-05-08T14:47:11.055Z,34.38
2023-05-08T14:49:17.111Z,34.32
2023-05-08T14:51:24.380Z,34.68
2023-05-08T14:53:26.195Z,35.05
2023-05-08T14:55:27.966Z,37.07
2023-05-08T14:57:29.864Z,38.16
2023-05-08T14:59:31.472Z,35.96
2023-05-08T15:01:33.212Z,38.00
2023-05-08T15:03:35.070Z,38.43
2023-05-08T15:05:36.700Z,38.66
2023-05-08T15:07:41.439Z,38.18
2023-05-08T15:09:44.004Z,39.22
2023-05-08T15:11:45.574Z,39.87
2023-05-08T15:13:47.219Z,38.51
2023-05-08T15:15:48.889Z,39.08
2023-05-08T15:17:50.711Z,37.66
2023-05-08T15:19:52.352Z,36.73
2023-05-08T15:21:53.930Z,36.62
2023-05-08T15:23:55.650Z,36.23
2023-05-08T15:25:57.294Z,36.92
2023-05-08T15:28:00.723Z,37.49
2023-05-08T15:30:02.886Z,39.07
2023-05-08T15:32:04.710Z,40.44
2023-05-08T15:34:06.287Z,41.09
2023-05-08T15:36:07.932Z,41.85
2023-05-08T15:38:11.482Z,41.88
2023-05-08T15:40:13.574Z,41.67
2023-05-08T15:42:15.432Z,42.01
2023-05-08T15:44:19.000Z,42.64
2023-05-08T15:46:20.648Z,43.07
2023-05-08T15:48:23.213Z,43.39
2023-05-08T15:50:24.900Z,43.67
2023-05-08T15:52:26.526Z,43.71
2023-05-08T15:54:28.043Z,44.68
2023-05-08T15:56:29.574Z,45.03
2023-05-08T15:58:31.188Z,45.95
2023-05-08T16:00:44.108Z,46.10
2023-05-08T16:02:47.672Z,46.33
2023-05-08T16:04:49.446Z,45.60
2023-05-08T16:06:51.001Z,45.68
2023-05-08T16:08:52.829Z,45.64
2023-05-08T16:10:54.807Z,45.94
2023-05-08T16:12:56.416Z,46.59
2023-05-08T16:14:58.004Z,47.38
2023-05-08T16:16:59.572Z,47.74
2023-05-08T16:19:01.213Z,48.02
2023-05-08T16:21:08.339Z,48.53
2023-05-08T16:23:10.128Z,49.74
2023-05-08T16:25:11.770Z,49.40
2023-05-08T16:27:13.545Z,49.49
2023-05-08T16:29:15.197Z,49.82
2023-05-08T16:31:17.013Z,49.96
2023-05-08T16:33:18.580Z,50.07
2023-05-08T16:35:20.306Z,49.13
2023-05-08T16:37:21.884Z,50.22
2023-05-08T16:39:23.474Z,50.56
2023-05-08T16:41:25.053Z,50.25
2023-05-08T16:43:26.619Z,49.89
2023-05-08T16:45:28.646Z,50.92
2023-05-08T16:47:30.450Z,51.10
2023-05-08T16:49:31.999Z,50.43
2023-05-08T16:51:33.747Z,51.30
2023-05-08T16:53:35.829Z,50.51
2023-05-08T16:55:38.429Z,51.24
2023-05-08T16:57:39.873Z,51.04
2023-05-08T16:59:41.554Z,52.14
2023-05-08T17:01:43.487Z,52.83
2023-05-08T17:03:45.142Z,53.65
2023-05-08T17:05:46.760Z,53.82
2023-05-08T17:07:48.384Z,53.69
2023-05-08T17:09:54.945Z,54.73
2023-05-08T17:11:58.099Z,53.81
2023-05-08T17:13:59.632Z,54.99
2023-05-08T17:16:02.280Z,55.21
2023-05-08T17:18:04.209Z,55.68
2023-05-08T17:20:06.440Z,55.94
2023-05-08T17:22:08.224Z,56.48
2023-05-08T17:24:09.955Z,56.56
2023-05-08T17:26:12.063Z,57.03
2023-05-08T17:28:13.634Z,56.71
2023-05-08T17:30:16.681Z,57.24
2023-05-08T17:32:18.499Z,56.63
2023-05-08T17:34:22.889Z,57.26
2023-05-08T17:36:24.667Z,57.21
2023-05-08T17:38:27.178Z,57.45
2023-05-08T17:40:28.847Z,57.07
2023-05-08T17:42:30.454Z,57.78
2023-05-08T17:44:32.017Z,57.55
2023-05-08T17:46:33.976Z,56.30
2023-05-08T17:48:36.098Z,56.91
2023-05-08T17:50:42.296Z,57.84
2023-05-08T17:52:44.334Z,57.47
2023-05-08T17:54:47.405Z,59.60
2023-05-08T17:56:49.009Z,57.26
2023-05-08T17:58:52.320Z,56.32
2023-05-08T18:00:55.655Z,57.00
2023-05-08T18:02:57.576Z,57.36
2023-05-08T18:04:59.120Z,58.10
2023-05-08T18:07:04.107Z,58.78
2023-05-08T18:09:05.710Z,59.45
2023-05-08T18:11:14.329Z,59.22
2023-05-08T18:13:16.088Z,59.22
2023-05-08T18:15:17.833Z,60.05
2023-05-08T18:17:21.890Z,59.78
2023-05-08T18:19:23.522Z,60.33
2023-05-08T18:21:25.222Z,60.31
2023-05-08T18:23:27.179Z,60.70
2023-05-08T18:25:28.807Z,61.22
2023-05-08T18:27:33.294Z,61.50
2023-05-08T18:29:34.880Z,61.39
2023-05-08T18:31:36.499Z,62.20
2023-05-08T18:33:38.032Z,62.77
2023-05-08T18:35:39.993Z,63.20
2023-05-08T18:37:41.551Z,64.06
2023-05-08T18:39:43.076Z,64.14
2023-05-08T18:41:44.606Z,63.85
2023-05-08T18:43:46.537Z,64.05
2023-05-08T18:45:49.609Z,64.61
2023-05-08T18:47:53.201Z,65.31
2023-05-08T18:49:57.016Z,65.20
2023-05-08T18:51:58.761Z,65.38
2023-05-08T18:54:00.415Z,65.29
2023-05-08T18:56:03.913Z,66.22
2023-05-08T18:58:06.479Z,66.53
2023-05-08T19:00:08.706Z,66.99
2023-05-08T19:02:10.982Z,66.65
2023-05-08T19:04:12.564Z,66.44
2023-05-08T19:06:14.676Z,67.25
2023-05-08T19:08:16.302Z,67.04
2023-05-08T19:10:18.109Z,67.45
2023-05-08T19:12:19.783Z,67.96
2023-05-08T19:14:21.279Z,67.89
2023-05-08T19:16:23.169Z,68.49
2023-05-08T19:18:25.406Z,68.07
2023-05-08T19:20:27.401Z,68.42
2023-05-08T19:22:28.963Z,68.98
2023-05-08T19:24:31.744Z,69.10
2023-05-08T19:26:33.707Z,69.14
2023-05-08T19:28:35.560Z,69.44
2023-05-08T19:30:37.259Z,69.22
2023-05-08T19:32:38.826Z,68.68
2023-05-08T19:34:40.452Z,70.03
2023-05-08T19:36:42.192Z,70.20
2023-05-08T19:38:44.362Z,70.87
2023-05-08T19:40:56.568Z,70.53
2023-05-08T19:42:59.321Z,70.86
2023-05-08T19:45:01.305Z,71.53
2023-05-08T19:47:04.276Z,71.18
2023-05-08T19:49:06.524Z,71.09
2023-05-08T19:51:09.208Z,71.82
2023-05-08T19:53:10.778Z,71.76
2023-05-08T19:55:13.305Z,71.10
2023-05-08T19:57:15.326Z,71.14
2023-05-08T19:59:16.992Z,71.20
2023-05-08T20:01:18.966Z,71.49
2023-05-08T20:03:20.974Z,71.69
2023-05-08T20:05:23.382Z,72.13
2023-05-08T20:07:26.023Z,71.63
2023-05-08T20:09:27.864Z,71.86
2023-05-08T20:11:30.206Z,71.37
2023-05-08T20:13:32.049Z,71.84
2023-05-08T20:15:33.808Z,72.09
2023-05-08T20:17:35.772Z,71.78
2023-05-08T20:19:37.977Z,71.79
2023-05-08T20:21:39.764Z,72.07
2023-05-08T20:23:41.480Z,72.66
2023-05-08T20:25:46.192Z,73.00
2023-05-08T20:27:48.059Z,72.75
2023-05-08T20:29:49.776Z,73.53
2023-05-08T20:31:51.626Z,73.68
2023-05-08T20:33:53.954Z,73.22
2023-05-08T20:35:55.801Z,73.73
2023-05-08T20:37:57.476Z,73.99
2023-05-08T20:39:59.566Z,73.90
2023-05-08T20:42:01.077Z,73.79
2023-05-08T20:44:02.686Z,73.85
2023-05-08T20:46:04.280Z,73.92
2023-05-08T20:48:06.200Z,73.33
2023-05-08T20:50:08.215Z,73.27
2023-05-08T20:52:09.860Z,74.17
2023-05-08T20:54:11.398Z,74.22
2023-05-08T20:56:18.881Z,74.71
2023-05-08T20:58:20.818Z,74.85
2023-05-08T21:00:22.387Z,75.03
2023-05-08T21:02:23.979Z,75.10
2023-05-08T21:04:25.577Z,75.78
2023-05-08T21:06:28.097Z,75.91
2023-05-08T21:08:29.872Z,75.79
2023-05-08T21:10:31.600Z,76.16
2023-05-08T21:12:33.200Z,76.36
2023-05-08T21:14:35.338Z,76.30
2023-05-08T21:16:37.069Z,76.71
2023-05-08T21:18:38.858Z,76.45
2023-05-08T21:20:40.525Z,76.46
2023-05-08T21:22:42.175Z,75.90
2023-05-08T21:24:52.471Z,75.88
2023-05-08T21:26:54.142Z,76.07
2023-05-08T21:28:58.466Z,75.74
2023-05-08T21:31:00.421Z,75.27
2023-05-08T21:33:02.898Z,74.99
2023-05-08T21:35:04.751Z,74.51
2023-05-08T21:37:06.657Z,74.22
2023-05-08T21:39:08.847Z,74.75
2023-05-08T21:41:10.677Z,74.69
2023-05-08T21:43:12.241Z,74.04
2023-05-08T21:45:17.627Z,74.52
2023-05-08T21:47:19.619Z,74.80
2023-05-08T21:49:21.262Z,75.19
2023-05-08T21:51:23.105Z,75.71
2023-05-08T21:53:25.021Z,76.02
2023-05-08T21:55:26.649Z,76.24
2023-05-08T21:57:28.330Z,76.03
2023-05-08T21:59:29.845Z,75.78
2023-05-08T22:01:31.843Z,76.34
2023-05-08T22:03:33.745Z,77.18
2023-05-08T22:05:35.328Z,76.63
2023-05-08T22:07:37.076Z,76.84
2023-05-08T22:09:38.620Z,77.08
2023-05-08T22:11:40.482Z,77.69
2023-05-08T22:13:42.273Z,78.11
2023-05-08T22:15:43.850Z,77.70
2023-05-08T22:17:47.072Z,77.74
2023-05-08T22:19:48.885Z,77.88
2023-05-08T22:21:50.430Z,78.00
2023-05-08T22:23:52.157Z,78.17
2023-05-08T22:25:53.909Z,78.60
2023-05-08T22:27:55.808Z,79.30
2023-05-08T22:30:00.175Z,79.51
2023-05-08T22:32:02.346Z,79.92
2023-05-08T22:34:04.001Z,80.00
2023-05-08T22:36:06.375Z,79.98
2023-05-08T22:38:08.116Z,79.22
2023-05-08T22:40:10.055Z,79.49
2023-05-08T22:42:11.825Z,79.31
2023-05-08T22:44:13.453Z,79.73
2023-05-08T22:46:15.443Z,79.65
2023-05-08T22:48:17.805Z,79.61
2023-05-08T22:50:19.779Z,79.41
2023-05-08T22:52:21.807Z,79.81
2023-05-08T22:54:23.330Z,80.15
2023-05-08T22:56:25.084Z,79.76
2023-05-08T22:58:27.214Z,79.89
2023-05-08T23:00:28.959Z,80.38
2023-05-08T23:02:35.027Z,80.45
2023-05-08T23:04:36.848Z,80.62
2023-05-08T23:06:38.659Z,80.19
2023-05-08T23:08:40.293Z,80.48
2023-05-08T23:10:42.213Z,80.92
2023-05-08T23:12:44.126Z,80.56
2023-05-08T23:14:45.781Z,80.04
2023-05-08T23:16:47.296Z,79.90
2023-05-08T23:18:48.878Z,80.32
2023-05-08T23:20:50.694Z,80.23
2023-05-08T23:22:52.498Z,79.96
2023-05-08T23:24:54.338Z,80.02
2023-05-08T23:26:55.978Z,79.26
2023-05-08T23:28:57.443Z,79.83
2023-05-08T23:30:59.285Z,80.21
2023-05-08T23:33:00.926Z,80.26
2023-05-08T23:35:02.501Z,80.83
2023-05-08T23:37:04.302Z,80.80
2023-05-08T23:39:07.325Z,81.00
2023-05-08T23:41:09.688Z,80.37
2023-05-08T23:43:11.312Z,80.92
2023-05-08T23:45:13.082Z,80.59
2023-05-08T23:47:14.777Z,80.77
2023-05-08T23:49:16.388Z,80.86
2023-05-08T23:51:18.074Z,80.52
2023-05-08T23:53:19.904Z,80.78
2023-05-08T23:55:21.521Z,80.13
2023-05-08T23:57:23.120Z,80.55
2023-05-08T23:59:24.925Z,81.33
